首页
METAR-TAF:

METAR-TAF

机场 :

喬治·布什洲際機場

休斯敦, 得克萨斯州, 美国

纬度: 29-59-33N, 经度: 095-21-50W, 海拔: 29米

当前天气观测

该预报发布于34分钟前的10:15 UTC
风速5节,风向北转东北
温度 20°C
湿度 94%
气压 1014 hPa
能見度: 16.1公里
多云层高于800英尺
多云层高于2200英尺
阴天层高于5000英尺

METAR: KIAH 241015Z 03005KT 10SM BKN008 BKN022 OVC050 20/19 A2994 RMK AO2 T02000194

时间: 05:49 (10:49 UTC)

预报

该预报发布于2小时和39分钟前的08:10 UTC
预报有效从24日的 08点(UTC)到 25日的 12点(UTC)
风速6节,风向
能見度: 10公里
散云层高于800英尺
多云层高于1800英尺
多云层高于4000英尺
从 24日的 1200点(UTC)
风速7节,风向东转东南
能見度: 10公里
多云层高于1500英尺
阴天层高于2000英尺
从 24日的 1800点(UTC)
风速14节,风向东南,有时为22节阵风
能見度: 10公里
多云层高于2000英尺, 积雨云.
附近有雷暴
从 25日的 0000点(UTC)
风速10节,风向东南
能見度: 10公里
多云层高于2500英尺, 积雨云.
阴天层高于3500英尺
小阵雨, 附近有雷暴
从 25日的 0600点(UTC)
风速6节,风向
能見度: 10公里
多云层高于2000英尺, 积雨云.
阴天层高于9000英尺
雷暴, 小雨
从 25日的 0900点(UTC)
风速3节,风向多变
能見度: 10公里
多云层高于1500英尺, 积雨云.
多云层高于2500英尺
小阵雨, 附近有雷暴

TAF: KIAH 240810Z 2408/2512 09006KT P6SM SCT008 BKN018 BKN040 FM241200 11007KT P6SM BKN015 OVC020 FM241800 13014G22KT P6SM VCTS BKN020CB FM250000 14010KT P6SM -SHRA VCTS BKN025CB OVC035 FM250600 17006KT P6SM -TSRA BKN020CB OVC090 FM250900 VRB03KT P6SM -SHRA VCTS BKN015CB BKN025

超过4000个机场的气象观测和天气预报(METAR&TAF报告)。

可查询的气象台以黄色和红色小点在地图上表示。

将鼠标移到小点上方,可查看气象台名称。

然后点击查看天气观测和预报。

如需切换地图:点击带黑十字的绿色按钮放大地图;点击带横线的绿色按钮缩小地图;或者点击绿色箭头查看邻近地区的地图。


METAR-TAF: